Terminal Aerodrome Forecast
Issued by NWS

Home | Current Version | Previous Version | Text Only | Print | Product List | Glossary On
Versions: 1 2 3 4 5 6 7 8 9 10 11 12 13 14 15 16 17 18 19
000
FTUS45 KGJT 161736
TAFMTJ
TAF
KMTJ 161736Z 1618/1718 31008KT P6SM SCT070 OVC100
     FM170200 12006KT P6SM SCT100 BKN200
     FM170700 15007KT P6SM FEW200
     FM171500 VRB03KT P6SM SKC=

USA.gov is the U.S. government's official web portal to all federal, state and local government web resources and services.